Time;durP1;ratioP1;P1;durP2;ratioP2;P2;SDS_P1;SDS_P2;PMS_P1;PMS_P2;Temp;Humidity;BMP_temperature;BMP_pressure;BME280_temperature;BME280_humidity;BME280_pressure;Samples;Min_cycle;Max_cycle;Signal;HPM_P1;HPM_P2
2021/12/07 00:00:18;;;;;;;17.27;10.50;;;;;;;-1.22;100.00;94743.00;4992793;28;20208;-71
2021/12/07 00:02:44;;;;;;;13.80;9.40;;;;;;;-1.24;100.00;94745.28;4993253;28;20267;-67
2021/12/07 00:05:10;;;;;;;14.00;9.43;;;;;;;-1.24;100.00;94745.28;4993415;28;20203;-66
2021/12/07 00:07:35;;;;;;;14.80;9.80;;;;;;;-1.26;100.00;94737.59;4993756;28;20172;-62
2021/12/07 00:10:02;;;;;;;14.70;9.27;;;;;;;-1.28;100.00;94744.41;4992976;28;20238;-61
2021/12/07 00:12:34;;;;;;;14.77;9.10;;;;;;;-1.32;100.00;94744.31;4992954;28;20179;-62
2021/12/07 00:15:02;;;;;;;14.97;9.27;;;;;;;-1.30;100.00;94768.06;4992603;28;20194;-61
2021/12/07 00:17:28;;;;;;;12.37;8.83;;;;;;;-1.30;100.00;94752.00;4993091;28;20180;-62
2021/12/07 00:19:54;;;;;;;15.17;9.03;;;;;;;-1.34;100.00;94751.88;4992817;28;20287;-66
2021/12/07 00:22:19;;;;;;;14.33;8.97;;;;;;;-1.36;100.00;94742.66;4992792;28;20203;-60
2021/12/07 00:24:45;;;;;;;15.17;8.53;;;;;;;-1.41;100.00;94733.00;4992268;28;20195;-61
2021/12/07 00:27:10;;;;;;;13.80;8.80;;;;;;;-1.43;100.00;94731.75;4996321;28;20183;-61
2021/12/07 00:29:36;;;;;;;13.83;8.60;;;;;;;-1.44;100.00;94731.00;4996338;28;20203;-62
2021/12/07 00:32:20;;;;;;;11.93;8.37;;;;;;;-1.43;100.00;94734.44;4996131;28;20176;-62
2021/12/07 00:35:12;;;;;;;13.90;9.13;;;;;;;-1.43;100.00;94737.09;4996579;28;20168;-63
2021/12/07 00:37:34;;;;;;;11.97;8.13;;;;;;;-1.44;100.00;94731.00;4996711;28;20203;-61
2021/12/07 00:40:01;;;;;;;12.00;7.83;;;;;;;-1.45;100.00;94725.97;4995903;28;20235;-69
2021/12/07 00:42:27;;;;;;;12.43;7.77;;;;;;;-1.47;100.00;94720.97;4996501;28;20183;-74
2021/12/07 00:44:52;;;;;;;12.23;8.27;;;;;;;-1.46;100.00;94717.16;4996285;28;20188;-61
2021/12/07 00:47:18;;;;;;;12.17;8.43;;;;;;;-1.48;100.00;94708.72;4995456;28;20223;-60
2021/12/07 00:49:44;;;;;;;11.00;7.80;;;;;;;-1.46;100.00;94708.38;4995500;28;20218;-60
2021/12/07 00:52:10;;;;;;;14.13;8.30;;;;;;;-1.43;100.00;94710.34;4995615;28;20243;-60
2021/12/07 00:54:36;;;;;;;10.80;7.50;;;;;;;-1.39;100.00;94711.22;4995743;28;20223;-61
2021/12/07 00:57:02;;;;;;;12.40;7.63;;;;;;;-1.35;100.00;94704.06;4995649;28;20187;-60
2021/12/07 00:59:29;;;;;;;13.60;7.87;;;;;;;-1.31;100.00;94708.38;4995477;28;20238;-62
2021/12/07 01:01:55;;;;;;;10.80;7.30;;;;;;;-1.29;100.00;94705.34;4995673;28;20188;-58
2021/12/07 01:04:22;;;;;;;10.47;6.77;;;;;;;-1.28;100.00;94701.56;4995420;28;20176;-58
2021/12/07 01:09:31;;;;;;;8.87;6.33;;;;;;;-1.28;100.00;94701.56;4996790;28;20609;-58
2021/12/07 01:25:43;;;;;;;8.50;5.30;;;;;;;-1.27;100.00;94692.41;4996335;28;20219;-59
2021/12/07 01:28:23;;;;;;;7.03;5.43;;;;;;;-1.26;100.00;94688.59;4995173;28;20181;-59
2021/12/07 01:30:55;;;;;;;7.63;5.03;;;;;;;-1.21;100.00;94693.69;4994813;28;20227;-59
2021/12/07 01:38:36;;;;;;;6.83;4.27;;;;;;;-1.28;100.00;94680.16;4995630;28;20184;-71
2021/12/07 01:41:18;;;;;;;4.57;3.40;;;;;;;-1.24;100.00;94678.34;4995106;28;20199;-72
2021/12/07 01:44:15;;;;;;;4.90;3.23;;;;;;;-1.23;100.00;94677.22;4995308;28;20214;-72
2021/12/07 01:59:48;;;;;;;3.33;2.50;;;;;;;-1.14;100.00;94693.84;4995589;28;20195;-60
2021/12/07 02:02:18;;;;;;;3.33;2.90;;;;;;;-1.09;100.00;94685.59;4994377;28;20176;-61
2021/12/07 02:04:44;;;;;;;4.13;2.73;;;;;;;-1.03;100.00;94681.50;4994802;28;20168;-62
2021/12/07 02:07:10;;;;;;;3.93;2.67;;;;;;;-1.01;100.00;94680.06;4994931;28;20172;-61
2021/12/07 02:09:39;;;;;;;3.47;2.70;;;;;;;-0.98;100.00;94679.31;4994445;28;20168;-61
2021/12/07 02:12:06;;;;;;;2.50;2.30;;;;;;;-0.94;100.00;94679.44;4994769;28;20176;-77
2021/12/07 02:14:32;;;;;;;3.20;2.30;;;;;;;-0.91;100.00;94670.69;4994901;28;20199;-76
2021/12/07 02:17:02;;;;;;;3.10;2.20;;;;;;;-0.85;100.00;94669.28;4994323;28;20183;-76
2021/12/07 02:19:27;;;;;;;2.70;2.30;;;;;;;-0.80;100.00;94674.41;4994633;28;20198;-76
2021/12/07 02:21:55;;;;;;;2.70;2.03;;;;;;;-0.78;100.00;94680.16;4994154;28;20268;-77
2021/12/07 02:24:20;;;;;;;3.30;1.87;;;;;;;-0.72;100.00;94671.50;4994283;28;20176;-77
2021/12/07 02:26:49;;;;;;;2.00;1.80;;;;;;;-0.73;100.00;94653.13;4993914;28;20203;-77
2021/12/07 02:29:16;;;;;;;2.60;2.00;;;;;;;-0.69;100.00;94665.44;4994083;28;20175;-78
2021/12/07 02:31:42;;;;;;;2.50;1.93;;;;;;;-0.64;100.00;94667.09;4993893;28;20176;-64
2021/12/07 02:34:09;;;;;;;3.80;2.60;;;;;;;-0.61;100.00;94655.66;4994100;28;20179;-71
2021/12/07 02:36:35;;;;;;;3.97;2.67;;;;;;;-0.58;100.00;94660.34;4994474;28;20267;-69
2021/12/07 02:39:03;;;;;;;3.63;2.40;;;;;;;-0.58;100.00;94649.63;4994002;28;20183;-68
2021/12/07 02:41:29;;;;;;;2.40;2.03;;;;;;;-0.54;100.00;94650.47;4993591;28;20204;-67
2021/12/07 02:43:54;;;;;;;2.17;1.90;;;;;;;-0.53;100.00;94641.28;4994169;28;20486;-72
2021/12/07 02:46:19;;;;;;;2.80;2.20;;;;;;;-0.54;100.00;94645.09;4993527;28;20176;-72
2021/12/07 02:48:45;;;;;;;5.63;3.20;;;;;;;-0.52;100.00;94642.84;4993368;28;20180;-63
2021/12/07 02:51:10;;;;;;;2.17;1.80;;;;;;;-0.49;100.00;94636.78;4993587;28;20172;-60
2021/12/07 02:53:36;;;;;;;1.70;1.40;;;;;;;-0.44;100.00;94639.16;4993550;28;20176;-60
2021/12/07 02:56:05;;;;;;;1.53;1.40;;;;;;;-0.44;100.00;94645.31;4994353;28;20207;-60
2021/12/07 02:58:30;;;;;;;1.50;1.40;;;;;;;-0.44;100.00;94649.88;4993547;28;20196;-60
2021/12/07 03:01:08;;;;;;;2.00;1.60;;;;;;;-0.38;100.00;94645.81;4993286;28;20267;-60
2021/12/07 03:03:38;;;;;;;2.30;1.50;;;;;;;-0.39;100.00;94647.69;4993575;28;20183;-61
2021/12/07 03:27:31;;;;;;;2.07;1.60;;;;;;;-0.10;100.00;94686.63;4994195;28;20340;-60
2021/12/07 03:29:57;;;;;;;2.57;1.57;;;;;;;-0.08;100.00;94687.81;4993679;28;20208;-61
2021/12/07 03:32:22;;;;;;;2.50;1.97;;;;;;;-0.11;100.00;94685.03;4992950;28;20176;-62
2021/12/07 03:34:48;;;;;;;1.70;1.60;;;;;;;-0.11;100.00;94685.03;4992817;28;20258;-61
2021/12/07 03:37:13;;;;;;;2.30;1.77;;;;;;;-0.09;100.00;94693.53;4993474;28;20229;-62
2021/12/07 03:39:39;;;;;;;2.63;1.90;;;;;;;-0.14;100.00;94696.50;4993293;28;20198;-62
2021/12/07 03:42:04;;;;;;;4.43;1.87;;;;;;;-0.16;100.00;94688.81;4993098;28;20172;-62
2021/12/07 03:44:30;;;;;;;2.77;2.20;;;;;;;-0.19;100.00;94697.56;4993127;28;20180;-62
2021/12/07 03:46:56;;;;;;;3.17;2.07;;;;;;;-0.20;100.00;94697.91;4993109;28;20311;-61
2021/12/07 03:49:21;;;;;;;2.77;1.90;;;;;;;-0.25;100.00;94692.81;4993503;28;20212;-63
2021/12/07 03:51:46;;;;;;;3.10;2.03;;;;;;;-0.31;100.00;94691.53;4993025;28;20180;-63
2021/12/07 03:54:12;;;;;;;3.10;2.23;;;;;;;-0.33;100.00;94678.47;4993082;28;20180;-62
2021/12/07 03:56:37;;;;;;;2.83;1.90;;;;;;;-0.36;100.00;94678.41;4992716;28;20184;-64
2021/12/07 03:59:03;;;;;;;2.37;2.07;;;;;;;-0.34;100.00;94678.84;4992943;28;20304;-63
2021/12/07 04:01:29;;;;;;;2.70;2.13;;;;;;;-0.33;100.00;94677.69;4994579;28;20209;-59
2021/12/07 04:03:54;;;;;;;2.80;2.23;;;;;;;-0.36;100.00;94678.41;4997033;28;20260;-77
2021/12/07 04:06:21;;;;;;;2.07;1.80;;;;;;;-0.35;100.00;94685.34;4996688;28;20187;-59
2021/12/07 04:08:46;;;;;;;2.60;2.17;;;;;;;-0.33;100.00;94683.06;4996570;28;20203;-59
2021/12/07 04:11:14;;;;;;;3.17;2.40;;;;;;;-0.28;100.00;94690.84;4997163;28;20279;-60
2021/12/07 04:13:44;;;;;;;2.17;1.97;;;;;;;-0.30;100.00;94677.78;4996488;28;20177;-60
2021/12/07 04:16:11;;;;;;;2.07;1.90;;;;;;;-0.30;100.00;94677.00;4997051;28;20176;-60
2021/12/07 04:18:37;;;;;;;3.20;1.90;;;;;;;-0.37;100.00;94672.28;4996255;28;20243;-59
2021/12/07 04:21:03;;;;;;;2.80;1.90;;;;;;;-0.36;100.00;94668.47;4996215;28;20219;-60
2021/12/07 04:23:31;;;;;;;4.00;3.00;;;;;;;-0.33;100.00;94677.69;4996105;28;20187;-61
2021/12/07 04:25:57;;;;;;;6.53;4.10;;;;;;;-0.26;100.00;94677.84;4996263;28;20188;-61
2021/12/07 04:28:23;;;;;;;2.33;1.90;;;;;;;-0.24;100.00;94670.25;4996804;28;20275;-61
2021/12/07 04:30:48;;;;;;;2.50;2.30;;;;;;;-0.25;100.00;94674.06;4996005;28;20314;-61
2021/12/07 04:33:14;;;;;;;3.10;1.90;;;;;;;-0.26;100.00;94672.47;4996375;28;20238;-61
2021/12/07 04:35:44;;;;;;;3.67;2.50;;;;;;;-0.24;100.00;94675.59;4996184;28;20228;-60
2021/12/07 04:38:09;;;;;;;4.03;3.20;;;;;;;-0.24;100.00;94672.91;4995681;28;20267;-62
2021/12/07 04:40:35;;;;;;;3.37;2.07;;;;;;;-0.21;100.00;94678.34;4996312;28;20292;-61
2021/12/07 04:43:01;;;;;;;2.77;2.30;;;;;;;-0.17;100.00;94675.75;4996294;28;20192;-62
2021/12/07 04:58:20;;;;;;;2.60;1.50;;;;;;;0.09;100.00;94678.56;4996955;28;20251;-60
2021/12/07 05:00:45;;;;;;;1.70;1.53;;;;;;;0.11;100.00;94689.72;4995817;28;20222;-75
2021/12/07 05:03:13;;;;;;;1.33;1.23;;;;;;;0.15;100.00;94689.78;4995391;28;20176;-73
2021/12/07 05:05:44;;;;;;;3.13;1.50;;;;;;;0.21;100.00;94680.31;4995192;28;20206;-71
2021/12/07 05:08:13;;;;;;;2.03;1.40;;;;;;;0.27;100.00;94686.94;4995748;28;20173;-74
2021/12/07 05:39:48;;;;;;;2.23;1.10;;;;;;;0.65;100.00;94719.13;4995899;28;20234;-63
2021/12/07 05:42:14;;;;;;;1.20;1.10;;;;;;;0.61;100.00;94710.97;4995715;28;20568;-63
2021/12/07 05:44:40;;;;;;;2.00;1.40;;;;;;;0.64;100.00;94731.75;4994523;28;20176;-63
2021/12/07 05:47:06;;;;;;;1.30;1.20;;;;;;;0.67;100.00;94717.63;4994834;28;20221;-64
2021/12/07 05:49:31;;;;;;;1.30;1.10;;;;;;;0.69;100.00;94720.72;4994927;28;20181;-63
2021/12/07 05:51:57;;;;;;;1.93;1.30;;;;;;;0.71;100.00;94721.16;4994338;28;20185;-62
2021/12/07 05:54:22;;;;;;;4.30;1.23;;;;;;;0.74;100.00;94719.66;4994556;28;20172;-63
2021/12/07 05:56:48;;;;;;;1.50;1.10;;;;;;;0.79;100.00;94730.88;4994134;28;20273;-69
2021/12/07 05:59:14;;;;;;;2.93;1.23;;;;;;;0.79;100.00;94716.66;4995671;28;20204;-67
2021/12/07 06:01:39;;;;;;;2.13;1.60;;;;;;;0.82;100.00;94726.69;4994617;28;20225;-68
2021/12/07 06:04:05;;;;;;;1.20;1.10;;;;;;;0.79;100.00;94722.81;4994446;28;20180;-73
2021/12/07 06:06:30;;;;;;;2.93;1.53;;;;;;;0.79;100.00;94722.81;4994144;28;20168;-76
2021/12/07 06:08:55;;;;;;;2.10;1.03;;;;;;;0.80;100.00;94727.03;4994508;28;20177;-76
2021/12/07 06:11:23;;;;;;;1.93;1.40;;;;;;;0.83;100.00;94726.34;4994794;28;20173;-62
2021/12/07 06:13:50;;;;;;;1.90;1.60;;;;;;;0.82;100.00;94722.09;4994474;28;20200;-61
2021/12/07 06:16:16;;;;;;;3.73;2.30;;;;;;;0.86;100.00;94722.16;4994305;28;20178;-60
2021/12/07 06:18:42;;;;;;;3.13;1.60;;;;;;;0.89;100.00;94722.22;4994397;28;20252;-63
2021/12/07 06:21:07;;;;;;;1.30;1.07;;;;;;;0.82;100.00;94730.16;4994089;28;20228;-62
2021/12/07 06:23:33;;;;;;;3.87;1.20;;;;;;;0.85;100.00;94721.41;4993420;28;20177;-62
2021/12/07 06:25:59;;;;;;;2.53;1.70;;;;;;;0.90;100.00;94731.84;4993827;28;20201;-62
2021/12/07 06:28:24;;;;;;;5.00;2.20;;;;;;;0.95;100.00;94730.78;4994076;28;20194;-72
2021/12/07 06:30:50;;;;;;;3.60;2.00;;;;;;;0.96;100.00;94737.69;4994316;28;20215;-59
2021/12/07 06:33:18;;;;;;;4.33;2.10;;;;;;;1.00;100.00;94744.69;4994103;28;20199;-60
2021/12/07 06:35:44;;;;;;;5.30;2.70;;;;;;;1.01;100.00;94751.59;4994084;28;20182;-60
2021/12/07 06:38:10;;;;;;;2.07;1.40;;;;;;;1.04;100.00;94750.91;4993904;28;20183;-59
2021/12/07 06:40:35;;;;;;;1.73;1.50;;;;;;;1.08;100.00;94751.72;4993065;28;20283;-60
2021/12/07 06:43:01;;;;;;;2.80;1.40;;;;;;;1.13;100.00;94756.78;4993782;28;20172;-59
2021/12/07 06:45:28;;;;;;;2.73;1.50;;;;;;;1.17;100.00;94749.56;4993305;28;20284;-60
2021/12/07 06:47:54;;;;;;;1.70;1.50;;;;;;;1.24;100.00;94755.06;4992825;28;20274;-63
2021/12/07 06:50:20;;;;;;;1.90;1.70;;;;;;;1.23;100.00;94769.63;4993683;28;20205;-59
2021/12/07 06:52:46;;;;;;;2.77;1.50;;;;;;;1.24;100.00;94771.19;4993304;28;20192;-60
2021/12/07 06:55:11;;;;;;;2.53;1.50;;;;;;;1.26;100.00;94771.63;4993213;28;20186;-60
2021/12/07 06:57:37;;;;;;;1.77;1.50;;;;;;;1.31;100.00;94770.53;4993209;28;20216;-59
2021/12/07 07:00:07;;;;;;;1.57;1.40;;;;;;;1.32;100.00;94772.88;4993224;28;20207;-60
2021/12/07 07:02:33;;;;;;;2.80;1.77;;;;;;;1.35;100.00;94777.50;4993427;28;20223;-59
2021/12/07 07:04:58;;;;;;;2.37;1.60;;;;;;;1.40;100.00;94779.91;4992988;28;20182;-59
2021/12/07 07:07:24;;;;;;;16.00;8.70;;;;;;;1.48;100.00;94792.34;4994170;28;20263;-60
2021/12/07 07:09:50;;;;;;;6.53;3.63;;;;;;;1.52;100.00;94793.16;4993097;28;20180;-71
2021/12/07 07:12:15;;;;;;;3.70;1.90;;;;;;;1.49;100.00;94799.25;4993935;28;20193;-72
2021/12/07 07:14:41;;;;;;;3.40;2.10;;;;;;;1.49;100.00;94798.50;4993509;28;20186;-71
2021/12/07 07:17:06;;;;;;;1.83;1.50;;;;;;;1.49;100.00;94809.25;4993134;28;20250;-72
2021/12/07 07:19:31;;;;;;;1.93;1.60;;;;;;;1.50;100.00;94806.22;4993387;28;20235;-70
2021/12/07 07:22:01;;;;;;;2.20;1.60;;;;;;;1.49;100.00;94820.78;4992739;28;20209;-71
2021/12/07 07:24:27;;;;;;;2.27;1.70;;;;;;;1.50;100.00;94816.97;4992856;28;20196;-65
2021/12/07 07:26:52;;;;;;;2.83;1.70;;;;;;;1.55;100.00;94819.34;4993038;28;20182;-61
2021/12/07 07:29:17;;;;;;;2.23;1.73;;;;;;;1.54;100.00;94817.81;4993341;28;20183;-67
2021/12/07 07:31:43;;;;;;;2.57;1.90;;;;;;;1.57;100.00;94821.69;4992659;28;20205;-66
2021/12/07 07:34:08;;;;;;;3.13;2.20;;;;;;;1.59;100.00;94830.94;4993306;28;20292;-65
2021/12/07 07:36:33;;;;;;;5.20;1.90;;;;;;;1.64;100.00;94827.94;4994296;28;20279;-65
2021/12/07 07:38:59;;;;;;;2.93;1.50;;;;;;;1.67;100.00;94837.97;4996605;28;20178;-65
2021/12/07 07:41:24;;;;;;;3.30;1.90;;;;;;;1.76;100.00;94837.75;4997027;28;20211;-66
2021/12/07 07:43:50;;;;;;;5.50;1.73;;;;;;;1.75;100.00;94842.34;4997337;28;20208;-72
2021/12/07 07:46:15;;;;;;;3.43;1.80;;;;;;;1.85;100.00;94844.44;4996558;28;20183;-66
2021/12/07 07:48:40;;;;;;;2.23;1.70;;;;;;;1.84;100.00;94864.41;4997107;28;20185;-66
2021/12/07 07:51:06;;;;;;;2.97;2.03;;;;;;;1.88;100.00;94853.69;4996764;28;20187;-66
2021/12/07 07:53:31;;;;;;;2.20;1.63;;;;;;;1.90;100.00;94862.94;4996944;28;20209;-66
2021/12/07 07:55:57;;;;;;;2.93;1.83;;;;;;;1.94;100.00;94869.19;4996559;28;20181;-66
2021/12/07 07:58:22;;;;;;;2.33;1.93;;;;;;;1.95;100.00;94853.78;4996715;28;20255;-67
2021/12/07 08:00:49;;;;;;;3.60;2.20;;;;;;;1.91;100.00;94864.53;4996525;28;20212;-62
2021/12/07 08:03:15;;;;;;;2.00;1.80;;;;;;;1.94;100.00;94869.19;4996141;28;20185;-62
2021/12/07 08:05:40;;;;;;;1.80;1.60;;;;;;;1.96;100.00;94868.81;4996393;28;20188;-67
2021/12/07 08:08:06;;;;;;;1.70;1.60;;;;;;;1.99;100.00;94874.25;4996663;28;20198;-66
2021/12/07 08:10:32;;;;;;;3.57;2.00;;;;;;;2.07;100.00;94867.84;4996696;28;20178;-67
2021/12/07 08:13:00;;;;;;;3.30;1.73;;;;;;;2.10;100.00;94869.81;4995906;28;20178;-67
2021/12/07 08:15:27;;;;;;;3.37;2.83;;;;;;;2.10;100.00;94872.50;4996564;28;20177;-67
2021/12/07 08:17:53;;;;;;;2.67;2.07;;;;;;;2.09;100.00;94870.16;4996391;28;20186;-67
2021/12/07 08:20:19;;;;;;;7.70;5.00;;;;;;;2.14;100.00;94873.34;4996252;28;20204;-63
2021/12/07 08:22:44;;;;;;;3.77;1.70;;;;;;;2.18;100.00;94882.22;4996235;28;20297;-63
2021/12/07 08:25:10;;;;;;;2.40;2.10;;;;;;;2.37;100.00;94882.13;4996138;28;20204;-63
2021/12/07 08:27:35;;;;;;;3.50;2.00;;;;;;;3.04;100.00;94873.00;4996543;28;20210;-64
2021/12/07 08:30:03;;;;;;;2.47;1.80;;;;;;;4.05;100.00;94879.75;4995906;28;20198;-65
2021/12/07 08:32:29;;;;;;;2.77;2.00;;;;;;;4.43;100.00;94876.56;4996176;28;20215;-64
2021/12/07 08:34:54;;;;;;;2.83;1.70;;;;;;;4.20;100.00;94884.13;4996477;28;20231;-65
2021/12/07 08:37:19;;;;;;;3.50;1.80;;;;;;;3.93;100.00;94890.88;4995916;28;20199;-65
2021/12/07 08:39:45;;;;;;;3.93;1.70;;;;;;;4.27;100.00;94901.19;4995808;28;20211;-63
2021/12/07 08:42:10;;;;;;;3.20;2.00;;;;;;;5.12;100.00;94905.94;4995822;28;20255;-67
2021/12/07 08:44:36;;;;;;;3.20;2.00;;;;;;;5.76;100.00;94906.91;4995468;28;20204;-64
2021/12/07 08:47:01;;;;;;;2.83;1.90;;;;;;;6.26;100.00;94911.22;4994962;28;20223;-64
2021/12/07 08:49:27;;;;;;;2.00;1.50;;;;;;;6.57;100.00;94907.75;4995678;28;20180;-64
2021/12/07 08:51:52;;;;;;;1.87;1.50;;;;;;;6.84;100.00;94908.84;4995412;28;20239;-66
2021/12/07 08:59:39;;;;;;;2.23;1.47;;;;;;;7.69;100.00;94909.34;4997084;28;20220;-64
2021/12/07 09:02:05;;;;;;;2.43;1.70;;;;;;;8.05;100.00;94922.31;4995975;28;20198;-64
2021/12/07 09:04:30;;;;;;;1.50;1.40;;;;;;;7.95;100.00;94912.31;4995212;28;20179;-62
2021/12/07 09:06:55;;;;;;;2.13;1.80;;;;;;;7.57;100.00;94918.69;4995779;28;20175;-63
2021/12/07 09:09:21;;;;;;;1.93;1.70;;;;;;;8.10;100.00;94924.63;4995553;28;20182;-62
2021/12/07 09:11:47;;;;;;;1.90;1.70;;;;;;;8.06;100.00;94926.59;4995166;28;20174;-63
2021/12/07 09:14:14;;;;;;;3.20;1.70;;;;;;;8.29;100.00;94926.84;4995810;28;20176;-62
2021/12/07 09:16:44;;;;;;;2.63;1.90;;;;;;;7.50;100.00;94940.47;4995424;28;20183;-61
2021/12/07 09:19:10;;;;;;;7.33;3.03;;;;;;;6.66;100.00;94946.09;4996194;28;20169;-60
2021/12/07 09:21:35;;;;;;;2.93;1.60;;;;;;;5.77;100.00;94952.56;4995563;28;20214;-63
2021/12/07 09:24:01;;;;;;;2.67;1.70;;;;;;;5.18;100.00;94953.13;4995253;28;20178;-63
2021/12/07 09:26:27;;;;;;;4.83;1.90;;;;;;;4.82;100.00;94956.78;4994760;28;20225;-61
2021/12/07 09:28:53;;;;;;;1.80;1.70;;;;;;;4.39;100.00;94951.44;4994993;28;20173;-59
2021/12/07 09:31:18;;;;;;;2.13;1.93;;;;;;;3.88;100.00;94967.59;4994978;28;20178;-60
2021/12/07 09:33:44;;;;;;;5.20;1.87;;;;;;;3.61;100.00;94963.44;4995124;28;20211;-62
2021/12/07 09:36:12;;;;;;;3.53;2.03;;;;;;;3.48;100.00;94952.13;4995131;28;20238;-64
2021/12/07 09:38:38;;;;;;;2.40;1.83;;;;;;;3.61;100.00;94949.16;4994396;28;20203;-64
2021/12/07 09:41:05;;;;;;;3.80;2.20;;;;;;;4.53;100.00;94951.53;4994523;28;20200;-64
2021/12/07 09:43:31;;;;;;;5.17;2.10;;;;;;;5.58;100.00;94946.72;4995178;28;20176;-62
2021/12/07 09:45:56;;;;;;;2.00;1.83;;;;;;;5.95;100.00;94944.50;4994143;28;20270;-63
2021/12/07 09:48:23;;;;;;;2.67;1.80;;;;;;;5.60;100.00;94947.09;4994841;28;20221;-63
2021/12/07 09:50:55;;;;;;;3.53;2.10;;;;;;;5.11;100.00;94949.59;4994398;28;20192;-62
2021/12/07 09:53:21;;;;;;;2.50;2.00;;;;;;;5.19;100.00;94945.75;4994232;28;20176;-64
2021/12/07 09:55:48;;;;;;;4.77;1.90;;;;;;;5.49;100.00;94943.56;4994427;28;20187;-62
2021/12/07 09:58:15;;;;;;;2.90;2.23;;;;;;;5.37;100.00;94958.22;4994493;28;20254;-62
2021/12/07 10:00:42;;;;;;;2.30;2.10;;;;;;;5.41;100.00;94955.53;4994048;28;20209;-61
2021/12/07 10:03:07;;;;;;;2.77;2.10;;;;;;;5.59;100.00;94949.03;4994894;28;20177;-60
2021/12/07 10:05:35;;;;;;;2.07;1.87;;;;;;;5.75;100.00;94943.25;4994174;28;20172;-60
2021/12/07 10:08:03;;;;;;;7.17;2.47;;;;;;;5.99;100.00;94959.63;4994357;28;20212;-60
2021/12/07 10:10:35;;;;;;;3.60;1.97;;;;;;;6.25;100.00;94942.22;4994328;28;20181;-60
2021/12/07 10:13:02;;;;;;;2.53;2.03;;;;;;;6.32;100.00;94959.28;4994477;28;20186;-70
2021/12/07 10:15:29;;;;;;;4.03;2.00;;;;;;;6.38;100.00;94949.59;4994406;28;20173;-70
2021/12/07 10:18:02;;;;;;;5.03;4.07;;;;;;;6.33;100.00;94960.03;4993744;28;20182;-66
2021/12/07 10:20:33;;;;;;;2.87;2.10;;;;;;;6.53;100.00;94950.38;4993572;28;20202;-63
2021/12/07 10:23:20;;;;;;;2.50;1.87;;;;;;;6.74;100.00;94953.09;4994161;28;20177;-66
2021/12/07 10:26:00;;;;;;;2.40;1.97;;;;;;;6.88;100.00;94949.56;4994636;28;20177;-71
2021/12/07 10:28:46;;;;;;;2.27;1.80;;;;;;;6.54;100.00;94943.78;4994551;28;20185;-66
2021/12/07 10:31:55;;;;;;;3.70;2.10;;;;;;;5.86;100.00;94941.38;4993559;28;20241;-62
2021/12/07 10:34:24;;;;;;;2.23;2.03;;;;;;;5.52;100.00;94943.59;4984649;28;20220;-63
2021/12/07 10:36:56;;;;;;;2.50;1.80;;;;;;;5.18;100.00;94950.41;4994445;28;20213;-65
2021/12/07 10:39:34;;;;;;;2.47;1.90;;;;;;;5.19;100.00;94940.34;4994318;28;20168;-64
2021/12/07 10:42:15;;;;;;;3.40;2.10;;;;;;;5.10;100.00;94942.63;4993994;28;20208;-64
2021/12/07 10:44:41;;;;;;;3.90;2.10;;;;;;;4.92;100.00;94941.78;4993908;28;20173;-61
2021/12/07 10:47:08;;;;;;;1.93;1.70;;;;;;;4.89;100.00;94939.81;4993404;28;20256;-68
2021/12/07 10:50:09;;;;;;;3.37;1.80;;;;;;;4.42;100.00;94940.66;4993520;28;20180;-57
2021/12/07 10:52:39;;;;;;;3.60;2.00;;;;;;;4.23;100.00;94937.41;4952377;28;20192;-58
2021/12/07 10:55:19;;;;;;;2.57;1.97;;;;;;;4.10;100.00;94934.22;4993175;28;20271;-59
2021/12/07 10:57:55;;;;;;;4.13;2.40;;;;;;;4.09;100.00;94942.69;4993842;28;20172;-60
2021/12/07 11:00:20;;;;;;;3.80;1.97;;;;;;;4.21;100.00;94943.19;4993639;28;20199;-59
2021/12/07 11:03:06;;;;;;;6.33;2.40;;;;;;;4.32;100.00;94946.75;4993599;28;20307;-59
2021/12/07 11:05:38;;;;;;;5.07;2.30;;;;;;;4.51;100.00;94943.06;4993884;28;20168;-63
2021/12/07 11:08:05;;;;;;;2.20;1.77;;;;;;;4.56;100.00;94953.50;4994131;28;20266;-61
2021/12/07 11:10:39;;;;;;;2.67;1.80;;;;;;;4.59;100.00;94955.47;4992462;28;20330;-60
2021/12/07 11:13:13;;;;;;;3.67;2.43;;;;;;;4.59;100.00;94956.22;4993092;28;20270;-58
2021/12/07 11:15:50;;;;;;;2.90;1.87;;;;;;;4.55;100.00;94950.00;4993689;28;20175;-60
2021/12/07 11:18:17;;;;;;;4.77;2.13;;;;;;;4.47;100.00;94953.03;4993774;28;20176;-59
2021/12/07 11:20:43;;;;;;;3.40;2.03;;;;;;;4.51;100.00;94948.47;4993006;28;20200;-60
2021/12/07 11:23:19;;;;;;;2.50;2.10;;;;;;;4.54;100.00;94932.25;4992685;28;20180;-58
2021/12/07 11:31:20;;;;;;;3.30;1.90;;;;;;;4.63;100.00;94929.22;4994036;28;20214;-56
2021/12/07 11:33:48;;;;;;;3.67;1.80;;;;;;;4.57;100.00;94931.50;4993500;28;20176;-57
2021/12/07 11:36:20;;;;;;;3.87;1.97;;;;;;;4.42;100.00;94929.06;4994190;28;20227;-57
2021/12/07 11:38:46;;;;;;;4.37;2.10;;;;;;;4.40;100.00;94928.69;4993212;28;20179;-58
2021/12/07 11:41:38;;;;;;;2.27;1.80;;;;;;;4.40;100.00;94936.78;4992928;28;20200;-62
2021/12/07 11:44:06;;;;;;;2.87;1.73;;;;;;;4.37;100.00;94932.13;4989806;28;20190;-58
2021/12/07 11:46:34;;;;;;;4.33;2.20;;;;;;;4.31;100.00;94941.72;4992772;28;20294;-58
2021/12/07 11:49:11;;;;;;;2.80;1.63;;;;;;;4.31;100.00;94936.31;4993066;28;20172;-58
2021/12/07 11:51:37;;;;;;;2.90;1.80;;;;;;;4.38;100.00;94933.69;4993594;28;20175;-58
2021/12/07 11:54:03;;;;;;;2.93;1.90;;;;;;;4.35;100.00;94926.31;4992846;28;20200;-58
2021/12/07 11:56:29;;;;;;;5.43;1.80;;;;;;;4.37;100.00;94926.72;4993436;28;20255;-58
2021/12/07 11:58:55;;;;;;;4.17;1.67;;;;;;;4.19;100.00;94931.22;4992629;28;20261;-69
2021/12/07 12:01:20;;;;;;;2.63;1.70;;;;;;;4.12;100.00;94925.75;4992452;28;20211;-61
2021/12/07 12:03:45;;;;;;;2.67;1.80;;;;;;;3.98;100.00;94915.59;4992378;28;20187;-58
2021/12/07 12:06:12;;;;;;;3.63;1.90;;;;;;;4.14;100.00;94924.22;4993247;28;20215;-59
2021/12/07 12:08:37;;;;;;;1.53;1.40;;;;;;;4.06;100.00;94928.00;4992691;28;20172;-58
2021/12/07 12:11:17;;;;;;;2.53;1.50;;;;;;;4.08;100.00;94930.34;4992906;28;20258;-59
2021/12/07 12:13:59;;;;;;;2.90;1.77;;;;;;;4.02;100.00;94921.81;4993165;28;20172;-59
2021/12/07 12:16:43;;;;;;;3.13;1.67;;;;;;;4.02;100.00;94934.53;4993128;28;20187;-58
2021/12/07 12:19:30;;;;;;;7.47;2.60;;;;;;;4.03;100.00;94927.97;4992994;28;20208;-69
2021/12/07 12:22:05;;;;;;;4.20;2.40;;;;;;;4.09;100.00;94915.69;4993107;28;20203;-59
2021/12/07 12:24:48;;;;;;;5.83;2.00;;;;;;;4.07;100.00;94924.16;4996587;28;20172;-58
2021/12/07 12:27:27;;;;;;;3.23;1.70;;;;;;;4.10;100.00;94922.63;4996984;28;20160;-58
2021/12/07 12:29:55;;;;;;;4.10;1.80;;;;;;;4.06;100.00;94921.81;4996461;28;20175;-59
2021/12/07 12:32:36;;;;;;;2.77;1.80;;;;;;;4.16;100.00;94915.75;4996496;28;20172;-58
2021/12/07 12:35:06;;;;;;;2.73;1.50;;;;;;;4.14;100.00;94901.81;4996381;28;20176;-58
2021/12/07 12:37:32;;;;;;;2.80;2.10;;;;;;;4.09;100.00;94907.56;4996439;28;20176;-58
2021/12/07 12:40:02;;;;;;;3.20;2.30;;;;;;;4.06;100.00;94927.22;4995751;28;20187;-57
2021/12/07 12:42:36;;;;;;;6.33;2.50;;;;;;;4.10;100.00;94922.63;4996057;28;20180;-56
2021/12/07 12:45:19;;;;;;;5.27;1.90;;;;;;;4.18;100.00;94913.47;4995989;28;20195;-56
2021/12/07 12:47:45;;;;;;;2.43;1.80;;;;;;;4.23;100.00;94913.09;4995771;28;20224;-57
2021/12/07 12:50:18;;;;;;;2.83;1.67;;;;;;;4.27;100.00;94911.19;4996362;28;20206;-58
2021/12/07 12:52:47;;;;;;;3.13;1.80;;;;;;;4.28;100.00;94907.34;4994938;28;20175;-57
2021/12/07 12:55:44;;;;;;;6.37;3.60;;;;;;;4.41;100.00;94905.91;4995150;28;20184;-59
2021/12/07 12:58:31;;;;;;;3.90;2.10;;;;;;;4.41;100.00;94903.19;4984245;28;20222;-58
2021/12/07 13:01:05;;;;;;;4.33;1.90;;;;;;;4.37;100.00;94895.06;4985245;28;20215;-58
2021/12/07 13:03:42;;;;;;;3.33;1.77;;;;;;;4.40;100.00;94898.94;4995995;28;20215;-58
2021/12/07 13:06:08;;;;;;;3.20;1.60;;;;;;;4.33;100.00;94893.50;4995668;28;20183;-58
2021/12/07 13:08:56;;;;;;;3.33;1.90;;;;;;;4.29;100.00;94903.50;4995569;28;20176;-58
2021/12/07 13:11:42;;;;;;;3.00;1.80;;;;;;;4.34;100.00;94889.63;4995609;28;20254;-58
2021/12/07 13:14:30;;;;;;;5.97;4.60;;;;;;;4.44;100.00;94888.94;4995403;28;20183;-59
2021/12/07 13:17:16;;;;;;;3.80;2.00;;;;;;;4.45;100.00;94891.28;4995600;28;20180;-66
2021/12/07 13:20:03;;;;;;;3.20;2.37;;;;;;;4.43;100.00;94892.78;4995084;28;20179;-66
2021/12/07 13:22:38;;;;;;;4.20;2.40;;;;;;;4.44;100.00;94888.94;4995738;28;20182;-66
2021/12/07 13:25:27;;;;;;;3.20;2.10;;;;;;;4.39;100.00;94887.34;4995607;28;20172;-65